sensor_id;sensor_type;location;lat;lon;timestamp;P1;durP1;ratioP1;P2;durP2;ratioP2
54831;SDS011;40730;53.068;6.572;2022-12-08T00:02:15;0.77;;;0.20;;
54831;SDS011;40730;53.068;6.572;2022-12-08T00:04:41;6.25;;;0.90;;
54831;SDS011;40730;53.068;6.572;2022-12-08T00:07:25;5.88;;;0.30;;
54831;SDS011;40730;53.068;6.572;2022-12-08T00:10:26;4.72;;;0.35;;
54831;SDS011;40730;53.068;6.572;2022-12-08T00:12:52;3.90;;;0.30;;
54831;SDS011;40730;53.068;6.572;2022-12-08T00:15:17;1.83;;;0.57;;
54831;SDS011;40730;53.068;6.572;2022-12-08T00:17:43;1.77;;;0.40;;
54831;SDS011;40730;53.068;6.572;2022-12-08T00:20:09;6.25;;;0.30;;
54831;SDS011;40730;53.068;6.572;2022-12-08T00:22:34;3.42;;;0.28;;
54831;SDS011;40730;53.068;6.572;2022-12-08T00:25:00;8.00;;;0.25;;
54831;SDS011;40730;53.068;6.572;2022-12-08T00:27:26;6.68;;;0.38;;
54831;SDS011;40730;53.068;6.572;2022-12-08T00:29:51;7.35;;;0.30;;
54831;SDS011;40730;53.068;6.572;2022-12-08T00:32:17;4.47;;;0.40;;
54831;SDS011;40730;53.068;6.572;2022-12-08T00:34:42;6.60;;;0.30;;
54831;SDS011;40730;53.068;6.572;2022-12-08T00:37:08;4.50;;;0.30;;
54831;SDS011;40730;53.068;6.572;2022-12-08T00:39:33;4.45;;;0.32;;
54831;SDS011;40730;53.068;6.572;2022-12-08T00:41:59;5.13;;;0.60;;
54831;SDS011;40730;53.068;6.572;2022-12-08T00:44:36;7.28;;;0.50;;
54831;SDS011;40730;53.068;6.572;2022-12-08T00:47:03;3.80;;;0.40;;
54831;SDS011;40730;53.068;6.572;2022-12-08T00:49:28;5.20;;;0.40;;
54831;SDS011;40730;53.068;6.572;2022-12-08T00:51:54;6.72;;;0.73;;
54831;SDS011;40730;53.068;6.572;2022-12-08T00:54:20;9.57;;;0.60;;
54831;SDS011;40730;53.068;6.572;2022-12-08T00:56:49;7.45;;;0.38;;
54831;SDS011;40730;53.068;6.572;2022-12-08T00:59:15;3.83;;;0.40;;
54831;SDS011;40730;53.068;6.572;2022-12-08T01:01:42;4.25;;;0.30;;
54831;SDS011;40730;53.068;6.572;2022-12-08T01:04:09;7.43;;;0.40;;
54831;SDS011;40730;53.068;6.572;2022-12-08T01:06:39;6.20;;;0.40;;
54831;SDS011;40730;53.068;6.572;2022-12-08T01:09:05;6.38;;;0.30;;
54831;SDS011;40730;53.068;6.572;2022-12-08T01:11:32;3.50;;;0.30;;
54831;SDS011;40730;53.068;6.572;2022-12-08T01:13:58;2.40;;;0.30;;
54831;SDS011;40730;53.068;6.572;2022-12-08T01:16:25;1.20;;;0.20;;
54831;SDS011;40730;53.068;6.572;2022-12-08T01:18:52;2.83;;;0.20;;
54831;SDS011;40730;53.068;6.572;2022-12-08T01:21:18;4.57;;;0.20;;
54831;SDS011;40730;53.068;6.572;2022-12-08T01:23:44;2.20;;;0.30;;
54831;SDS011;40730;53.068;6.572;2022-12-08T01:26:11;0.98;;;0.20;;
54831;SDS011;40730;53.068;6.572;2022-12-08T01:28:38;1.67;;;0.10;;
54831;SDS011;40730;53.068;6.572;2022-12-08T01:31:08;2.78;;;0.20;;
54831;SDS011;40730;53.068;6.572;2022-12-08T01:33:36;3.17;;;0.20;;
54831;SDS011;40730;53.068;6.572;2022-12-08T01:36:02;0.63;;;0.10;;
54831;SDS011;40730;53.068;6.572;2022-12-08T01:38:29;1.73;;;0.20;;
54831;SDS011;40730;53.068;6.572;2022-12-08T01:40:55;1.98;;;0.20;;
54831;SDS011;40730;53.068;6.572;2022-12-08T01:43:21;1.90;;;0.15;;
54831;SDS011;40730;53.068;6.572;2022-12-08T01:45:46;1.95;;;0.20;;
54831;SDS011;40730;53.068;6.572;2022-12-08T01:48:22;5.30;;;0.30;;
54831;SDS011;40730;53.068;6.572;2022-12-08T01:50:51;0.85;;;0.10;;
54831;SDS011;40730;53.068;6.572;2022-12-08T01:53:22;3.92;;;0.30;;
54831;SDS011;40730;53.068;6.572;2022-12-08T01:56:06;3.25;;;0.10;;
54831;SDS011;40730;53.068;6.572;2022-12-08T01:58:37;3.28;;;0.10;;
54831;SDS011;40730;53.068;6.572;2022-12-08T02:01:08;1.25;;;0.10;;
54831;SDS011;40730;53.068;6.572;2022-12-08T02:06:03;6.03;;;0.30;;
54831;SDS011;40730;53.068;6.572;2022-12-08T02:08:29;1.90;;;0.20;;
54831;SDS011;40730;53.068;6.572;2022-12-08T02:10:56;3.88;;;0.20;;
54831;SDS011;40730;53.068;6.572;2022-12-08T02:13:22;2.42;;;0.28;;
54831;SDS011;40730;53.068;6.572;2022-12-08T02:16:09;3.67;;;0.30;;
54831;SDS011;40730;53.068;6.572;2022-12-08T02:19:01;4.80;;;0.25;;
54831;SDS011;40730;53.068;6.572;2022-12-08T02:43:41;1.42;;;0.17;;
54831;SDS011;40730;53.068;6.572;2022-12-08T02:46:38;1.75;;;0.20;;
54831;SDS011;40730;53.068;6.572;2022-12-08T02:49:09;5.32;;;0.20;;
54831;SDS011;40730;53.068;6.572;2022-12-08T02:51:34;3.13;;;0.10;;
54831;SDS011;40730;53.068;6.572;2022-12-08T02:54:00;2.05;;;0.10;;
54831;SDS011;40730;53.068;6.572;2022-12-08T02:59:56;1.55;;;0.10;;
54831;SDS011;40730;53.068;6.572;2022-12-08T03:02:23;2.08;;;0.15;;
54831;SDS011;40730;53.068;6.572;2022-12-08T03:05:02;2.80;;;0.20;;
54831;SDS011;40730;53.068;6.572;2022-12-08T03:07:33;1.88;;;0.10;;
54831;SDS011;40730;53.068;6.572;2022-12-08T03:10:15;2.67;;;0.10;;
54831;SDS011;40730;53.068;6.572;2022-12-08T03:12:49;1.88;;;0.10;;
54831;SDS011;40730;53.068;6.572;2022-12-08T03:15:20;4.40;;;0.82;;
54831;SDS011;40730;53.068;6.572;2022-12-08T03:17:50;6.13;;;0.88;;
54831;SDS011;40730;53.068;6.572;2022-12-08T03:20:19;3.83;;;0.28;;
54831;SDS011;40730;53.068;6.572;2022-12-08T03:22:47;6.15;;;0.30;;
54831;SDS011;40730;53.068;6.572;2022-12-08T03:25:16;3.40;;;0.20;;
54831;SDS011;40730;53.068;6.572;2022-12-08T03:27:45;4.90;;;0.10;;
54831;SDS011;40730;53.068;6.572;2022-12-08T03:30:10;1.77;;;0.10;;
54831;SDS011;40730;53.068;6.572;2022-12-08T03:32:46;2.15;;;0.10;;
54831;SDS011;40730;53.068;6.572;2022-12-08T03:35:22;2.22;;;0.40;;
54831;SDS011;40730;53.068;6.572;2022-12-08T03:37:55;1.60;;;0.03;;
54831;SDS011;40730;53.068;6.572;2022-12-08T03:40:31;3.67;;;0.30;;
54831;SDS011;40730;53.068;6.572;2022-12-08T03:42:57;1.88;;;0.00;;
54831;SDS011;40730;53.068;6.572;2022-12-08T03:45:22;2.25;;;0.10;;
54831;SDS011;40730;53.068;6.572;2022-12-08T03:47:48;1.65;;;0.00;;
54831;SDS011;40730;53.068;6.572;2022-12-08T03:50:14;0.30;;;0.10;;
54831;SDS011;40730;53.068;6.572;2022-12-08T03:52:40;3.85;;;0.10;;
54831;SDS011;40730;53.068;6.572;2022-12-08T03:55:06;1.08;;;0.08;;
54831;SDS011;40730;53.068;6.572;2022-12-08T03:57:31;2.25;;;0.00;;
54831;SDS011;40730;53.068;6.572;2022-12-08T03:59:57;1.65;;;0.00;;
54831;SDS011;40730;53.068;6.572;2022-12-08T04:02:22;1.27;;;0.00;;
54831;SDS011;40730;53.068;6.572;2022-12-08T04:04:48;0.75;;;0.00;;
54831;SDS011;40730;53.068;6.572;2022-12-08T04:07:14;2.08;;;0.00;;
54831;SDS011;40730;53.068;6.572;2022-12-08T04:09:39;1.05;;;0.00;;
54831;SDS011;40730;53.068;6.572;2022-12-08T04:12:06;0.45;;;0.10;;
54831;SDS011;40730;53.068;6.572;2022-12-08T04:14:32;2.53;;;0.00;;
54831;SDS011;40730;53.068;6.572;2022-12-08T04:16:57;0.52;;;0.10;;
54831;SDS011;40730;53.068;6.572;2022-12-08T04:19:23;4.40;;;0.10;;
54831;SDS011;40730;53.068;6.572;2022-12-08T04:21:49;1.05;;;0.10;;
54831;SDS011;40730;53.068;6.572;2022-12-08T04:24:14;1.38;;;0.00;;
54831;SDS011;40730;53.068;6.572;2022-12-08T04:26:40;4.30;;;0.00;;
54831;SDS011;40730;53.068;6.572;2022-12-08T04:29:05;3.70;;;0.22;;
54831;SDS011;40730;53.068;6.572;2022-12-08T04:31:31;3.70;;;0.10;;
54831;SDS011;40730;53.068;6.572;2022-12-08T04:33:57;3.83;;;0.73;;
54831;SDS011;40730;53.068;6.572;2022-12-08T04:36:22;1.23;;;0.10;;
54831;SDS011;40730;53.068;6.572;2022-12-08T04:38:48;2.40;;;0.30;;
54831;SDS011;40730;53.068;6.572;2022-12-08T04:41:13;0.90;;;0.10;;
54831;SDS011;40730;53.068;6.572;2022-12-08T04:43:39;1.05;;;0.17;;
54831;SDS011;40730;53.068;6.572;2022-12-08T04:46:06;3.35;;;0.20;;
54831;SDS011;40730;53.068;6.572;2022-12-08T04:48:33;0.90;;;0.10;;
54831;SDS011;40730;53.068;6.572;2022-12-08T04:50:59;2.42;;;0.20;;
54831;SDS011;40730;53.068;6.572;2022-12-08T04:53:24;0.90;;;0.20;;
54831;SDS011;40730;53.068;6.572;2022-12-08T04:55:51;3.38;;;0.20;;
54831;SDS011;40730;53.068;6.572;2022-12-08T04:58:17;1.92;;;0.10;;
54831;SDS011;40730;53.068;6.572;2022-12-08T05:00:44;2.17;;;0.10;;
54831;SDS011;40730;53.068;6.572;2022-12-08T05:03:10;1.13;;;0.10;;
54831;SDS011;40730;53.068;6.572;2022-12-08T05:05:37;3.15;;;0.30;;
54831;SDS011;40730;53.068;6.572;2022-12-08T05:08:03;0.63;;;0.10;;
54831;SDS011;40730;53.068;6.572;2022-12-08T05:10:29;0.32;;;0.10;;
54831;SDS011;40730;53.068;6.572;2022-12-08T05:12:54;2.47;;;0.10;;
54831;SDS011;40730;53.068;6.572;2022-12-08T05:15:21;1.42;;;0.10;;
54831;SDS011;40730;53.068;6.572;2022-12-08T05:17:47;1.70;;;0.10;;
54831;SDS011;40730;53.068;6.572;2022-12-08T05:20:12;2.05;;;0.00;;
54831;SDS011;40730;53.068;6.572;2022-12-08T05:22:38;1.25;;;0.00;;
54831;SDS011;40730;53.068;6.572;2022-12-08T05:25:04;1.17;;;0.10;;
54831;SDS011;40730;53.068;6.572;2022-12-08T05:27:29;0.55;;;0.05;;
54831;SDS011;40730;53.068;6.572;2022-12-08T05:29:55;0.82;;;0.05;;
54831;SDS011;40730;53.068;6.572;2022-12-08T05:32:21;1.52;;;0.10;;
54831;SDS011;40730;53.068;6.572;2022-12-08T05:34:46;1.10;;;0.05;;
54831;SDS011;40730;53.068;6.572;2022-12-08T05:37:12;3.50;;;0.20;;
54831;SDS011;40730;53.068;6.572;2022-12-08T05:39:37;0.50;;;0.00;;
54831;SDS011;40730;53.068;6.572;2022-12-08T05:42:03;1.08;;;0.10;;
54831;SDS011;40730;53.068;6.572;2022-12-08T05:44:29;2.10;;;0.10;;
54831;SDS011;40730;53.068;6.572;2022-12-08T05:46:54;0.90;;;0.10;;
54831;SDS011;40730;53.068;6.572;2022-12-08T05:49:20;1.05;;;0.10;;
54831;SDS011;40730;53.068;6.572;2022-12-08T05:51:45;1.67;;;0.30;;
54831;SDS011;40730;53.068;6.572;2022-12-08T05:54:11;0.65;;;0.08;;
54831;SDS011;40730;53.068;6.572;2022-12-08T05:56:36;3.92;;;0.10;;
54831;SDS011;40730;53.068;6.572;2022-12-08T05:59:04;3.47;;;0.00;;
54831;SDS011;40730;53.068;6.572;2022-12-08T06:01:30;0.75;;;0.00;;
54831;SDS011;40730;53.068;6.572;2022-12-08T06:03:57;6.43;;;0.30;;
54831;SDS011;40730;53.068;6.572;2022-12-08T06:06:24;0.25;;;0.00;;
54831;SDS011;40730;53.068;6.572;2022-12-08T06:08:50;0.98;;;0.20;;
54831;SDS011;40730;53.068;6.572;2022-12-08T06:11:20;1.85;;;0.10;;
54831;SDS011;40730;53.068;6.572;2022-12-08T06:13:47;1.55;;;0.10;;
54831;SDS011;40730;53.068;6.572;2022-12-08T06:16:13;1.10;;;0.10;;
54831;SDS011;40730;53.068;6.572;2022-12-08T06:18:39;1.88;;;0.10;;
54831;SDS011;40730;53.068;6.572;2022-12-08T06:21:08;1.02;;;0.00;;
54831;SDS011;40730;53.068;6.572;2022-12-08T06:23:35;1.85;;;0.10;;
54831;SDS011;40730;53.068;6.572;2022-12-08T06:26:02;0.50;;;0.15;;
54831;SDS011;40730;53.068;6.572;2022-12-08T06:28:32;3.10;;;0.10;;
54831;SDS011;40730;53.068;6.572;2022-12-08T06:30:58;3.88;;;0.68;;
54831;SDS011;40730;53.068;6.572;2022-12-08T06:33:25;1.73;;;0.20;;
54831;SDS011;40730;53.068;6.572;2022-12-08T06:35:51;1.13;;;0.10;;
54831;SDS011;40730;53.068;6.572;2022-12-08T06:38:17;1.48;;;0.10;;
54831;SDS011;40730;53.068;6.572;2022-12-08T06:40:43;3.15;;;0.20;;
54831;SDS011;40730;53.068;6.572;2022-12-08T06:43:08;3.58;;;0.20;;
54831;SDS011;40730;53.068;6.572;2022-12-08T06:45:34;0.50;;;0.17;;
54831;SDS011;40730;53.068;6.572;2022-12-08T06:48:00;2.30;;;0.20;;
54831;SDS011;40730;53.068;6.572;2022-12-08T06:50:26;1.02;;;0.28;;
54831;SDS011;40730;53.068;6.572;2022-12-08T06:52:52;4.82;;;0.30;;
54831;SDS011;40730;53.068;6.572;2022-12-08T06:55:18;4.22;;;0.32;;
54831;SDS011;40730;53.068;6.572;2022-12-08T06:57:43;4.30;;;0.40;;
54831;SDS011;40730;53.068;6.572;2022-12-08T07:00:09;3.05;;;0.30;;
54831;SDS011;40730;53.068;6.572;2022-12-08T07:02:35;3.40;;;0.35;;
54831;SDS011;40730;53.068;6.572;2022-12-08T07:05:01;2.35;;;0.30;;
54831;SDS011;40730;53.068;6.572;2022-12-08T07:07:26;2.97;;;0.43;;
54831;SDS011;40730;53.068;6.572;2022-12-08T07:09:52;3.60;;;0.80;;
54831;SDS011;40730;53.068;6.572;2022-12-08T07:12:17;3.72;;;0.80;;
54831;SDS011;40730;53.068;6.572;2022-12-08T07:14:43;5.43;;;0.95;;
54831;SDS011;40730;53.068;6.572;2022-12-08T07:17:09;3.42;;;0.88;;
54831;SDS011;40730;53.068;6.572;2022-12-08T07:19:34;5.63;;;1.17;;
54831;SDS011;40730;53.068;6.572;2022-12-08T07:22:00;2.55;;;1.00;;
54831;SDS011;40730;53.068;6.572;2022-12-08T07:24:26;4.72;;;1.33;;
54831;SDS011;40730;53.068;6.572;2022-12-08T07:26:51;5.00;;;0.80;;
54831;SDS011;40730;53.068;6.572;2022-12-08T07:29:17;6.57;;;0.88;;
54831;SDS011;40730;53.068;6.572;2022-12-08T07:31:42;3.92;;;0.73;;
54831;SDS011;40730;53.068;6.572;2022-12-08T07:34:09;4.18;;;0.93;;
54831;SDS011;40730;53.068;6.572;2022-12-08T07:36:36;5.75;;;0.82;;
54831;SDS011;40730;53.068;6.572;2022-12-08T07:39:02;5.72;;;1.20;;
54831;SDS011;40730;53.068;6.572;2022-12-08T07:41:28;4.25;;;0.77;;
54831;SDS011;40730;53.068;6.572;2022-12-08T07:43:54;3.70;;;0.70;;
54831;SDS011;40730;53.068;6.572;2022-12-08T07:46:21;4.03;;;0.82;;
54831;SDS011;40730;53.068;6.572;2022-12-08T07:48:48;8.50;;;0.73;;
54831;SDS011;40730;53.068;6.572;2022-12-08T07:51:14;5.38;;;0.70;;
54831;SDS011;40730;53.068;6.572;2022-12-08T07:53:41;2.45;;;0.60;;
54831;SDS011;40730;53.068;6.572;2022-12-08T07:56:08;4.28;;;0.63;;
54831;SDS011;40730;53.068;6.572;2022-12-08T07:58:34;5.55;;;0.68;;
54831;SDS011;40730;53.068;6.572;2022-12-08T08:01:00;3.15;;;0.75;;
54831;SDS011;40730;53.068;6.572;2022-12-08T08:03:26;9.27;;;0.70;;
54831;SDS011;40730;53.068;6.572;2022-12-08T08:05:51;5.38;;;0.65;;
54831;SDS011;40730;53.068;6.572;2022-12-08T08:08:17;6.82;;;0.70;;
54831;SDS011;40730;53.068;6.572;2022-12-08T08:10:43;7.18;;;0.77;;
54831;SDS011;40730;53.068;6.572;2022-12-08T08:13:11;4.78;;;0.68;;
54831;SDS011;40730;53.068;6.572;2022-12-08T08:15:37;9.20;;;1.00;;
54831;SDS011;40730;53.068;6.572;2022-12-08T08:18:03;6.95;;;1.00;;
54831;SDS011;40730;53.068;6.572;2022-12-08T08:20:28;7.45;;;1.02;;
54831;SDS011;40730;53.068;6.572;2022-12-08T08:22:54;4.43;;;1.20;;
54831;SDS011;40730;53.068;6.572;2022-12-08T08:25:20;4.60;;;1.17;;
54831;SDS011;40730;53.068;6.572;2022-12-08T08:27:48;3.20;;;0.82;;
54831;SDS011;40730;53.068;6.572;2022-12-08T08:30:15;5.85;;;0.88;;
54831;SDS011;40730;53.068;6.572;2022-12-08T08:32:41;3.78;;;0.90;;
54831;SDS011;40730;53.068;6.572;2022-12-08T08:35:07;7.20;;;1.70;;
54831;SDS011;40730;53.068;6.572;2022-12-08T08:37:33;5.80;;;1.55;;
54831;SDS011;40730;53.068;6.572;2022-12-08T08:39:59;5.85;;;1.50;;
54831;SDS011;40730;53.068;6.572;2022-12-08T08:42:25;5.13;;;1.38;;
54831;SDS011;40730;53.068;6.572;2022-12-08T08:44:51;6.50;;;1.73;;
54831;SDS011;40730;53.068;6.572;2022-12-08T08:47:16;9.85;;;1.75;;
54831;SDS011;40730;53.068;6.572;2022-12-08T08:49:42;4.25;;;1.40;;
54831;SDS011;40730;53.068;6.572;2022-12-08T08:52:07;7.57;;;1.55;;
54831;SDS011;40730;53.068;6.572;2022-12-08T08:54:33;9.13;;;1.70;;
54831;SDS011;40730;53.068;6.572;2022-12-08T08:56:59;7.80;;;2.67;;
54831;SDS011;40730;53.068;6.572;2022-12-08T08:59:26;5.22;;;1.17;;
54831;SDS011;40730;53.068;6.572;2022-12-08T09:01:52;6.38;;;1.13;;
54831;SDS011;40730;53.068;6.572;2022-12-08T09:04:19;4.97;;;1.30;;
54831;SDS011;40730;53.068;6.572;2022-12-08T09:06:47;5.90;;;1.20;;
54831;SDS011;40730;53.068;6.572;2022-12-08T09:09:13;3.38;;;1.25;;
54831;SDS011;40730;53.068;6.572;2022-12-08T09:11:40;5.65;;;1.15;;
54831;SDS011;40730;53.068;6.572;2022-12-08T09:14:06;5.07;;;1.50;;
54831;SDS011;40730;53.068;6.572;2022-12-08T09:16:34;3.58;;;1.20;;
54831;SDS011;40730;53.068;6.572;2022-12-08T09:18:59;5.93;;;1.27;;
54831;SDS011;40730;53.068;6.572;2022-12-08T09:21:26;12.88;;;1.70;;
54831;SDS011;40730;53.068;6.572;2022-12-08T09:23:52;6.95;;;1.05;;
54831;SDS011;40730;53.068;6.572;2022-12-08T09:26:22;12.27;;;1.85;;
54831;SDS011;40730;53.068;6.572;2022-12-08T09:28:49;3.45;;;1.35;;
54831;SDS011;40730;53.068;6.572;2022-12-08T09:31:16;5.57;;;1.23;;
54831;SDS011;40730;53.068;6.572;2022-12-08T09:33:43;3.47;;;1.10;;
54831;SDS011;40730;53.068;6.572;2022-12-08T09:36:09;7.15;;;1.92;;
54831;SDS011;40730;53.068;6.572;2022-12-08T09:38:35;3.60;;;1.77;;
54831;SDS011;40730;53.068;6.572;2022-12-08T09:41:02;5.32;;;1.35;;
54831;SDS011;40730;53.068;6.572;2022-12-08T09:46:15;4.47;;;1.42;;
54831;SDS011;40730;53.068;6.572;2022-12-08T09:48:50;3.70;;;1.65;;
54831;SDS011;40730;53.068;6.572;2022-12-08T09:51:20;8.85;;;1.92;;
54831;SDS011;40730;53.068;6.572;2022-12-08T09:56:21;8.73;;;1.20;;
54831;SDS011;40730;53.068;6.572;2022-12-08T10:01:18;4.50;;;0.80;;
54831;SDS011;40730;53.068;6.572;2022-12-08T10:03:45;4.80;;;0.55;;
54831;SDS011;40730;53.068;6.572;2022-12-08T10:11:47;4.70;;;0.40;;
54831;SDS011;40730;53.068;6.572;2022-12-08T10:14:30;4.57;;;0.60;;
54831;SDS011;40730;53.068;6.572;2022-12-08T10:17:03;5.57;;;0.57;;
54831;SDS011;40730;53.068;6.572;2022-12-08T10:19:34;4.13;;;0.45;;
54831;SDS011;40730;53.068;6.572;2022-12-08T10:22:00;2.50;;;0.50;;
54831;SDS011;40730;53.068;6.572;2022-12-08T10:24:39;1.60;;;0.43;;
54831;SDS011;40730;53.068;6.572;2022-12-08T10:27:11;4.22;;;0.40;;
54831;SDS011;40730;53.068;6.572;2022-12-08T10:29:38;5.00;;;0.50;;
54831;SDS011;40730;53.068;6.572;2022-12-08T10:32:17;1.77;;;0.40;;
54831;SDS011;40730;53.068;6.572;2022-12-08T10:34:57;2.58;;;0.50;;
54831;SDS011;40730;53.068;6.572;2022-12-08T10:37:36;2.65;;;0.30;;
54831;SDS011;40730;53.068;6.572;2022-12-08T10:40:17;4.13;;;0.30;;
54831;SDS011;40730;53.068;6.572;2022-12-08T10:42:47;1.60;;;0.20;;
54831;SDS011;40730;53.068;6.572;2022-12-08T10:45:25;4.47;;;0.40;;
54831;SDS011;40730;53.068;6.572;2022-12-08T10:50:23;2.92;;;0.30;;
54831;SDS011;40730;53.068;6.572;2022-12-08T10:53:09;2.45;;;0.30;;
54831;SDS011;40730;53.068;6.572;2022-12-08T10:55:44;4.15;;;0.30;;
54831;SDS011;40730;53.068;6.572;2022-12-08T10:58:28;5.25;;;0.30;;
54831;SDS011;40730;53.068;6.572;2022-12-08T11:00:55;1.52;;;0.20;;
54831;SDS011;40730;53.068;6.572;2022-12-08T11:03:30;3.10;;;0.30;;
54831;SDS011;40730;53.068;6.572;2022-12-08T11:05:59;4.88;;;0.25;;
54831;SDS011;40730;53.068;6.572;2022-12-08T11:08:33;2.50;;;0.30;;
54831;SDS011;40730;53.068;6.572;2022-12-08T11:11:13;2.97;;;0.20;;
54831;SDS011;40730;53.068;6.572;2022-12-08T11:13:39;4.28;;;0.20;;
54831;SDS011;40730;53.068;6.572;2022-12-08T11:16:06;2.55;;;0.30;;
54831;SDS011;40730;53.068;6.572;2022-12-08T11:18:42;0.88;;;0.20;;
54831;SDS011;40730;53.068;6.572;2022-12-08T11:21:15;3.65;;;0.20;;
54831;SDS011;40730;53.068;6.572;2022-12-08T11:23:45;3.83;;;0.20;;
54831;SDS011;40730;53.068;6.572;2022-12-08T11:26:31;1.52;;;0.10;;
54831;SDS011;40730;53.068;6.572;2022-12-08T11:28:58;0.82;;;0.20;;
54831;SDS011;40730;53.068;6.572;2022-12-08T11:31:26;1.80;;;0.28;;
54831;SDS011;40730;53.068;6.572;2022-12-08T11:33:55;1.73;;;0.20;;
54831;SDS011;40730;53.068;6.572;2022-12-08T11:36:22;2.90;;;0.20;;
54831;SDS011;40730;53.068;6.572;2022-12-08T11:38:52;1.65;;;0.22;;
54831;SDS011;40730;53.068;6.572;2022-12-08T11:41:32;3.13;;;0.20;;
54831;SDS011;40730;53.068;6.572;2022-12-08T11:44:24;4.22;;;0.10;;
54831;SDS011;40730;53.068;6.572;2022-12-08T11:47:27;1.30;;;0.20;;
54831;SDS011;40730;53.068;6.572;2022-12-08T11:50:15;4.10;;;0.20;;
54831;SDS011;40730;53.068;6.572;2022-12-08T11:52:46;4.43;;;0.30;;
54831;SDS011;40730;53.068;6.572;2022-12-08T11:58:22;1.65;;;0.20;;
54831;SDS011;40730;53.068;6.572;2022-12-08T12:00:50;5.25;;;1.38;;
54831;SDS011;40730;53.068;6.572;2022-12-08T12:03:24;4.28;;;0.20;;
54831;SDS011;40730;53.068;6.572;2022-12-08T12:17:49;5.25;;;0.52;;
54831;SDS011;40730;53.068;6.572;2022-12-08T12:20:22;1.95;;;0.25;;
54831;SDS011;40730;53.068;6.572;2022-12-08T12:22:57;3.42;;;0.22;;
54831;SDS011;40730;53.068;6.572;2022-12-08T12:25:27;4.13;;;0.30;;
54831;SDS011;40730;53.068;6.572;2022-12-08T12:27:55;3.00;;;0.20;;
54831;SDS011;40730;53.068;6.572;2022-12-08T12:30:25;4.07;;;0.32;;
54831;SDS011;40730;53.068;6.572;2022-12-08T12:32:56;2.72;;;0.20;;
54831;SDS011;40730;53.068;6.572;2022-12-08T12:35:26;3.58;;;0.25;;
54831;SDS011;40730;53.068;6.572;2022-12-08T12:38:18;2.30;;;0.38;;
54831;SDS011;40730;53.068;6.572;2022-12-08T12:41:08;4.13;;;0.20;;
54831;SDS011;40730;53.068;6.572;2022-12-08T12:43:37;4.20;;;0.30;;
54831;SDS011;40730;53.068;6.572;2022-12-08T12:48:47;0.93;;;0.10;;
54831;SDS011;40730;53.068;6.572;2022-12-08T12:54:24;4.20;;;0.20;;
54831;SDS011;40730;53.068;6.572;2022-12-08T12:56:55;1.30;;;0.30;;
54831;SDS011;40730;53.068;6.572;2022-12-08T13:02:18;1.27;;;0.20;;
54831;SDS011;40730;53.068;6.572;2022-12-08T13:04:51;4.00;;;0.30;;
54831;SDS011;40730;53.068;6.572;2022-12-08T13:07:24;2.50;;;0.30;;
54831;SDS011;40730;53.068;6.572;2022-12-08T13:10:01;2.28;;;0.15;;
54831;SDS011;40730;53.068;6.572;2022-12-08T13:12:40;2.88;;;0.20;;
54831;SDS011;40730;53.068;6.572;2022-12-08T13:15:14;3.53;;;0.20;;
54831;SDS011;40730;53.068;6.572;2022-12-08T13:17:44;2.13;;;0.10;;
54831;SDS011;40730;53.068;6.572;2022-12-08T13:20:16;1.05;;;0.20;;
54831;SDS011;40730;53.068;6.572;2022-12-08T13:22:49;2.05;;;0.30;;
54831;SDS011;40730;53.068;6.572;2022-12-08T13:26:26;2.53;;;0.15;;
54831;SDS011;40730;53.068;6.572;2022-12-08T13:44:50;2.83;;;0.20;;
54831;SDS011;40730;53.068;6.572;2022-12-08T13:47:31;4.68;;;0.95;;
54831;SDS011;40730;53.068;6.572;2022-12-08T13:50:04;3.78;;;0.20;;
54831;SDS011;40730;53.068;6.572;2022-12-08T13:52:59;5.70;;;0.20;;
54831;SDS011;40730;53.068;6.572;2022-12-08T13:56:17;2.53;;;0.20;;
54831;SDS011;40730;53.068;6.572;2022-12-08T13:58:34;1.73;;;0.10;;
54831;SDS011;40730;53.068;6.572;2022-12-08T14:03:48;2.22;;;0.20;;
54831;SDS011;40730;53.068;6.572;2022-12-08T14:06:17;0.90;;;0.10;;
54831;SDS011;40730;53.068;6.572;2022-12-08T14:08:46;3.58;;;0.28;;
54831;SDS011;40730;53.068;6.572;2022-12-08T14:11:23;5.68;;;0.57;;
54831;SDS011;40730;53.068;6.572;2022-12-08T14:14:01;3.35;;;0.10;;
54831;SDS011;40730;53.068;6.572;2022-12-08T14:16:49;1.05;;;0.20;;
54831;SDS011;40730;53.068;6.572;2022-12-08T14:19:23;3.22;;;0.20;;
54831;SDS011;40730;53.068;6.572;2022-12-08T14:24:27;23.75;;;2.35;;
54831;SDS011;40730;53.068;6.572;2022-12-08T14:26:58;15.63;;;0.40;;
54831;SDS011;40730;53.068;6.572;2022-12-08T14:29:31;9.68;;;1.20;;
54831;SDS011;40730;53.068;6.572;2022-12-08T14:31:57;62.75;;;36.58;;
54831;SDS011;40730;53.068;6.572;2022-12-08T14:34:23;51.05;;;33.47;;
54831;SDS011;40730;53.068;6.572;2022-12-08T14:36:48;47.47;;;31.83;;
54831;SDS011;40730;53.068;6.572;2022-12-08T14:39:14;31.50;;;19.88;;
54831;SDS011;40730;53.068;6.572;2022-12-08T14:41:46;8.90;;;3.47;;
54831;SDS011;40730;53.068;6.572;2022-12-08T14:44:23;17.58;;;11.02;;
54831;SDS011;40730;53.068;6.572;2022-12-08T14:47:05;13.35;;;8.48;;
54831;SDS011;40730;53.068;6.572;2022-12-08T14:49:38;14.50;;;7.45;;
54831;SDS011;40730;53.068;6.572;2022-12-08T14:52:08;12.57;;;7.10;;
54831;SDS011;40730;53.068;6.572;2022-12-08T14:54:35;7.72;;;4.35;;
54831;SDS011;40730;53.068;6.572;2022-12-08T14:57:03;6.45;;;3.45;;
54831;SDS011;40730;53.068;6.572;2022-12-08T14:59:29;3.55;;;2.35;;
54831;SDS011;40730;53.068;6.572;2022-12-08T15:07:45;8.52;;;3.80;;
54831;SDS011;40730;53.068;6.572;2022-12-08T15:15:29;6.93;;;2.40;;
54831;SDS011;40730;53.068;6.572;2022-12-08T15:18:14;6.53;;;2.78;;
54831;SDS011;40730;53.068;6.572;2022-12-08T15:20:48;8.00;;;1.60;;
54831;SDS011;40730;53.068;6.572;2022-12-08T15:25:55;11.20;;;5.00;;
54831;SDS011;40730;53.068;6.572;2022-12-08T15:28:23;5.55;;;3.38;;
54831;SDS011;40730;53.068;6.572;2022-12-08T15:30:50;14.35;;;4.72;;
54831;SDS011;40730;53.068;6.572;2022-12-08T15:33:17;6.22;;;3.97;;
54831;SDS011;40730;53.068;6.572;2022-12-08T15:35:43;5.65;;;3.65;;
54831;SDS011;40730;53.068;6.572;2022-12-08T15:38:23;13.93;;;4.70;;
54831;SDS011;40730;53.068;6.572;2022-12-08T15:40:50;4.80;;;2.47;;
54831;SDS011;40730;53.068;6.572;2022-12-08T15:43:20;4.53;;;2.22;;
54831;SDS011;40730;53.068;6.572;2022-12-08T15:45:46;8.20;;;3.08;;
54831;SDS011;40730;53.068;6.572;2022-12-08T15:48:17;8.13;;;4.05;;
54831;SDS011;40730;53.068;6.572;2022-12-08T15:50:47;6.90;;;3.47;;
54831;SDS011;40730;53.068;6.572;2022-12-08T15:53:14;15.27;;;4.10;;
54831;SDS011;40730;53.068;6.572;2022-12-08T15:55:40;7.15;;;3.47;;
54831;SDS011;40730;53.068;6.572;2022-12-08T15:58:20;7.95;;;2.70;;
54831;SDS011;40730;53.068;6.572;2022-12-08T16:00:47;4.85;;;2.10;;
54831;SDS011;40730;53.068;6.572;2022-12-08T16:03:26;9.57;;;2.85;;
54831;SDS011;40730;53.068;6.572;2022-12-08T16:05:53;10.82;;;4.50;;
54831;SDS011;40730;53.068;6.572;2022-12-08T16:08:20;14.40;;;4.78;;
54831;SDS011;40730;53.068;6.572;2022-12-08T16:10:46;9.93;;;4.80;;
54831;SDS011;40730;53.068;6.572;2022-12-08T16:13:15;10.82;;;4.10;;
54831;SDS011;40730;53.068;6.572;2022-12-08T16:16:01;6.97;;;2.50;;
54831;SDS011;40730;53.068;6.572;2022-12-08T16:18:30;6.97;;;2.17;;
54831;SDS011;40730;53.068;6.572;2022-12-08T16:21:00;5.15;;;1.83;;
54831;SDS011;40730;53.068;6.572;2022-12-08T16:23:26;6.22;;;2.35;;
54831;SDS011;40730;53.068;6.572;2022-12-08T16:25:52;8.95;;;2.10;;
54831;SDS011;40730;53.068;6.572;2022-12-08T16:28:18;10.23;;;2.40;;
54831;SDS011;40730;53.068;6.572;2022-12-08T16:30:44;8.40;;;2.47;;
54831;SDS011;40730;53.068;6.572;2022-12-08T16:33:12;5.65;;;1.88;;
54831;SDS011;40730;53.068;6.572;2022-12-08T16:35:39;5.88;;;1.80;;
54831;SDS011;40730;53.068;6.572;2022-12-08T16:38:05;5.20;;;2.55;;
54831;SDS011;40730;53.068;6.572;2022-12-08T16:40:31;3.95;;;1.83;;
54831;SDS011;40730;53.068;6.572;2022-12-08T16:42:57;8.77;;;1.60;;
54831;SDS011;40730;53.068;6.572;2022-12-08T16:45:23;8.55;;;2.20;;